createdAt,value
2022-10-10T00:00:54.042Z,109
2022-10-10T00:01:58.266Z,105
2022-10-10T00:03:02.636Z,109
2022-10-10T00:04:06.980Z,111
2022-10-10T00:05:11.300Z,108
2022-10-10T00:06:15.764Z,110
2022-10-10T00:07:20.034Z,115
2022-10-10T00:08:24.199Z,110
2022-10-10T00:09:28.437Z,112
2022-10-10T00:10:32.748Z,114
2022-10-10T00:11:37.009Z,112
2022-10-10T00:12:54.429Z,111
2022-10-10T00:13:58.702Z,110
2022-10-10T00:15:03.196Z,109
2022-10-10T00:16:10.392Z,110
2022-10-10T00:17:14.641Z,114
2022-10-10T00:18:18.988Z,114
2022-10-10T00:19:23.124Z,116
2022-10-10T00:20:27.464Z,112
2022-10-10T00:21:31.801Z,114
2022-10-10T00:22:36.024Z,112
2022-10-10T00:23:40.336Z,116
2022-10-10T00:24:44.625Z,114
2022-10-10T00:25:48.848Z,120
2022-10-10T00:26:53.235Z,111
2022-10-10T00:27:57.617Z,112
2022-10-10T00:29:01.989Z,111
2022-10-10T00:30:06.413Z,107
2022-10-10T00:31:10.968Z,118
2022-10-10T00:32:15.241Z,114
2022-10-10T00:33:19.572Z,111
2022-10-10T00:34:23.872Z,115
2022-10-10T00:35:28.028Z,113
2022-10-10T00:36:32.560Z,113
2022-10-10T00:37:36.849Z,112
2022-10-10T00:38:41.067Z,112
2022-10-10T00:41:35.989Z,114
2022-10-10T00:42:40.340Z,116
2022-10-10T00:43:44.561Z,103
2022-10-10T00:44:58.829Z,113
2022-10-10T00:46:13.208Z,109
2022-10-10T00:47:17.561Z,105
2022-10-10T00:48:21.790Z,107
2022-10-10T00:49:26.908Z,107
2022-10-10T00:50:31.469Z,106
2022-10-10T00:51:35.652Z,107
2022-10-10T00:52:39.848Z,109
2022-10-10T00:53:44.160Z,107
2022-10-10T00:54:48.258Z,105
2022-10-10T00:58:46.057Z,98
2022-10-10T00:59:50.184Z,98
2022-10-10T01:00:54.389Z,105
2022-10-10T01:01:58.625Z,102
2022-10-10T01:03:02.797Z,108
2022-10-10T01:04:09.825Z,102
2022-10-10T01:05:24.212Z,106
2022-10-10T01:06:28.509Z,110
2022-10-10T01:07:32.845Z,100
2022-10-10T01:08:40.104Z,106
2022-10-10T01:09:44.317Z,103
2022-10-10T01:10:48.501Z,110
2022-10-10T01:12:02.948Z,102
2022-10-10T01:13:17.424Z,108
2022-10-10T01:14:27.057Z,105
2022-10-10T01:15:42.808Z,116
2022-10-10T01:16:57.392Z,109
2022-10-10T01:18:07.016Z,107
2022-10-10T01:19:14.336Z,115
2022-10-10T01:20:23.681Z,113
2022-10-10T01:21:32.813Z,109
2022-10-10T01:22:47.355Z,111
2022-10-10T01:24:03.818Z,112
2022-10-10T01:25:18.267Z,112
2022-10-10T01:26:27.719Z,112
2022-10-10T01:27:36.864Z,116
2022-10-10T01:28:49.120Z,112
2022-10-10T01:29:58.405Z,131
2022-10-10T01:31:07.621Z,111
2022-10-10T01:32:11.856Z,111
2022-10-10T01:33:24.268Z,108
2022-10-10T01:34:28.578Z,112
2022-10-10T01:35:43.021Z,113
2022-10-10T01:36:52.376Z,112
2022-10-10T01:38:05.285Z,118
2022-10-10T01:39:14.617Z,109
2022-10-10T01:40:29.252Z,108
2022-10-10T01:41:36.417Z,112
2022-10-10T01:42:41.133Z,117
2022-10-10T01:43:48.340Z,114
2022-10-10T01:44:56.212Z,112
2022-10-10T01:46:00.577Z,105
2022-10-10T01:47:10.089Z,110
2022-10-10T01:48:14.544Z,116
2022-10-10T01:49:18.870Z,109
2022-10-10T01:50:25.538Z,107
2022-10-10T01:51:30.232Z,110
2022-10-10T01:52:44.626Z,107
2022-10-10T01:53:59.136Z,117
2022-10-10T01:55:13.605Z,108
2022-10-10T01:56:25.643Z,111
2022-10-10T01:57:34.891Z,108
2022-10-10T01:58:44.260Z,110
2022-10-10T01:59:53.531Z,107
2022-10-10T02:01:05.810Z,102
2022-10-10T02:02:17.916Z,105
2022-10-10T02:03:28.140Z,108
2022-10-10T02:04:32.543Z,106
2022-10-10T02:06:48.083Z,103
2022-10-10T02:07:57.463Z,114
2022-10-10T02:09:04.139Z,110
2022-10-10T02:10:08.543Z,107
2022-10-10T02:11:12.768Z,104
2022-10-10T02:12:16.975Z,107
2022-10-10T02:13:21.171Z,106
2022-10-10T02:14:25.449Z,111
2022-10-10T02:15:29.612Z,116
2022-10-10T02:16:41.313Z,104
2022-10-10T02:17:45.622Z,107
2022-10-10T02:18:49.896Z,111
2022-10-10T02:19:55.263Z,111
2022-10-10T02:20:59.471Z,110
2022-10-10T02:22:03.842Z,106
2022-10-10T02:23:08.472Z,109
2022-10-10T02:24:15.284Z,108
2022-10-10T02:25:19.973Z,104
2022-10-10T02:26:24.232Z,103
2022-10-10T02:27:28.523Z,105
2022-10-10T02:28:38.148Z,106
2022-10-10T02:29:50.051Z,101
2022-10-10T02:30:54.583Z,103
2022-10-10T02:31:59.091Z,108
2022-10-10T02:33:03.311Z,106
2022-10-10T02:34:07.651Z,113
2022-10-10T02:35:14.553Z,110
2022-10-10T02:36:24.028Z,111
2022-10-10T02:37:28.453Z,102
2022-10-10T02:38:32.764Z,108
2022-10-10T02:39:37.020Z,104
2022-10-10T02:40:41.383Z,110
2022-10-10T02:41:45.587Z,108
2022-10-10T02:42:50.179Z,100
2022-10-10T02:43:54.075Z,107
2022-10-10T02:45:00.779Z,111
2022-10-10T02:47:57.895Z,110
2022-10-10T02:49:02.195Z,113
2022-10-10T02:50:09.675Z,107
2022-10-10T02:51:14.147Z,108
2022-10-10T02:52:18.443Z,102
2022-10-10T02:53:24.514Z,107
2022-10-10T02:54:32.943Z,105
2022-10-10T02:55:39.680Z,104
2022-10-10T02:56:44.377Z,104
2022-10-10T02:57:49.911Z,102
2022-10-10T02:58:54.207Z,104
2022-10-10T02:59:58.561Z,99
2022-10-10T03:01:02.760Z,108
2022-10-10T03:02:06.988Z,108
2022-10-10T03:03:11.466Z,103
2022-10-10T03:04:15.870Z,101
2022-10-10T03:05:24.803Z,99
2022-10-10T03:06:29.215Z,103
2022-10-10T03:07:33.679Z,97
2022-10-10T03:08:38.315Z,99
2022-10-10T03:09:42.599Z,101
2022-10-10T03:10:46.707Z,99
2022-10-10T03:11:56.051Z,101
2022-10-10T03:13:00.383Z,104
2022-10-10T03:14:04.663Z,97
2022-10-10T03:15:11.589Z,100
2022-10-10T03:16:13.379Z,101
2022-10-10T03:17:17.592Z,99
2022-10-10T03:18:21.917Z,96
2022-10-10T03:19:26.079Z,95
2022-10-10T03:20:30.399Z,99
2022-10-10T03:21:34.684Z,96
2022-10-10T03:22:39.084Z,100
2022-10-10T03:23:43.711Z,99
2022-10-10T03:24:47.947Z,93
2022-10-10T03:25:52.315Z,95
2022-10-10T03:26:59.005Z,99
2022-10-10T03:28:03.417Z,97
2022-10-10T03:29:07.668Z,105
2022-10-10T03:30:11.933Z,96
2022-10-10T03:31:16.375Z,99
2022-10-10T03:32:20.630Z,99
2022-10-10T03:33:24.886Z,100
2022-10-10T03:34:33.730Z,93
2022-10-10T03:35:37.978Z,101
2022-10-10T03:36:42.218Z,93
2022-10-10T03:37:48.655Z,97
2022-10-10T03:38:52.975Z,97
2022-10-10T03:39:57.211Z,91
2022-10-10T03:41:01.532Z,98
2022-10-10T03:42:05.798Z,94
2022-10-10T03:43:10.109Z,94
2022-10-10T03:44:16.735Z,97
2022-10-10T03:45:24.279Z,89
2022-10-10T03:46:32.331Z,87
2022-10-10T03:47:38.676Z,93
2022-10-10T03:48:42.887Z,92
2022-10-10T03:49:47.018Z,92
2022-10-10T03:50:51.458Z,92
2022-10-10T03:51:55.730Z,89
2022-10-10T03:53:00.022Z,94
2022-10-10T03:54:04.266Z,96
2022-10-10T03:55:08.557Z,87
2022-10-10T03:56:12.911Z,94
2022-10-10T03:57:17.277Z,86
2022-10-10T03:58:23.907Z,88
2022-10-10T03:59:28.870Z,89
2022-10-10T04:00:33.173Z,85
2022-10-10T04:01:41.802Z,90
2022-10-10T04:02:45.947Z,88
2022-10-10T04:03:52.213Z,93
2022-10-10T04:04:54.794Z,89
2022-10-10T04:06:00.035Z,89
2022-10-10T04:07:08.910Z,90
2022-10-10T04:08:13.215Z,87
2022-10-10T04:09:17.626Z,82
2022-10-10T04:10:21.742Z,85
2022-10-10T04:11:26.074Z,85
2022-10-10T04:12:30.358Z,88
2022-10-10T04:13:34.754Z,92
2022-10-10T04:14:39.032Z,80
2022-10-10T04:15:43.198Z,91
2022-10-10T04:16:49.371Z,84
2022-10-10T04:17:53.682Z,90
2022-10-10T04:18:58.402Z,87
2022-10-10T04:20:02.803Z,96
2022-10-10T04:21:09.483Z,88
2022-10-10T04:22:13.770Z,88
2022-10-10T04:23:18.101Z,84
2022-10-10T04:24:22.349Z,91
2022-10-10T04:25:26.734Z,79
2022-10-10T04:26:31.020Z,85
2022-10-10T04:27:39.675Z,84
2022-10-10T04:28:44.058Z,91
2022-10-10T04:29:48.366Z,94
2022-10-10T04:30:52.641Z,85
2022-10-10T04:31:58.247Z,86
2022-10-10T04:33:02.554Z,83
2022-10-10T04:34:09.650Z,91
2022-10-10T04:35:13.834Z,84
2022-10-10T04:36:18.171Z,88
2022-10-10T04:37:23.440Z,92
2022-10-10T04:38:27.770Z,96
2022-10-10T04:39:32.091Z,84
2022-10-10T04:40:36.702Z,79
2022-10-10T04:41:40.940Z,79
2022-10-10T04:42:45.318Z,82
2022-10-10T04:43:49.489Z,81
2022-10-10T04:44:53.854Z,81
2022-10-10T04:45:58.242Z,77
2022-10-10T04:47:02.547Z,93
2022-10-10T04:48:06.834Z,82
2022-10-10T04:49:15.038Z,85
2022-10-10T04:50:19.683Z,86
2022-10-10T04:51:23.970Z,75
2022-10-10T04:52:28.302Z,86
2022-10-10T04:53:32.665Z,76
2022-10-10T04:57:29.118Z,78
2022-10-10T04:58:36.719Z,78
2022-10-10T04:59:41.142Z,83
2022-10-10T05:00:45.523Z,87
2022-10-10T05:01:52.742Z,88
2022-10-10T05:02:57.420Z,83
2022-10-10T05:04:02.137Z,86
2022-10-10T05:05:06.498Z,102
2022-10-10T05:06:10.770Z,97
2022-10-10T05:07:15.150Z,105
2022-10-10T05:08:19.426Z,85
2022-10-10T05:09:23.774Z,105
2022-10-10T05:11:31.847Z,96
2022-10-10T05:12:36.194Z,84
2022-10-10T05:13:44.139Z,109
2022-10-10T05:14:48.580Z,103
2022-10-10T05:15:52.803Z,87
2022-10-10T05:16:57.178Z,80
2022-10-10T05:18:01.482Z,90
2022-10-10T05:19:06.342Z,91
2022-10-10T05:20:10.614Z,91
2022-10-10T05:21:14.790Z,97
2022-10-10T05:22:19.951Z,90
2022-10-10T05:23:24.394Z,83
2022-10-10T05:24:28.632Z,103
2022-10-10T05:25:33.167Z,106
2022-10-10T05:26:40.973Z,88
2022-10-10T05:27:41.775Z,89
2022-10-10T05:28:46.223Z,101
2022-10-10T05:29:50.474Z,85
2022-10-10T05:30:54.670Z,92
2022-10-10T05:31:58.886Z,102
2022-10-10T05:33:03.176Z,87
2022-10-10T05:34:07.610Z,91
2022-10-10T05:35:11.926Z,86
2022-10-10T05:36:16.709Z,88
2022-10-10T05:37:21.374Z,85
2022-10-10T05:38:26.378Z,83
2022-10-10T05:39:30.510Z,84
2022-10-10T05:40:35.005Z,81
2022-10-10T05:41:42.415Z,78
2022-10-10T05:42:46.651Z,78
2022-10-10T05:43:52.098Z,85
2022-10-10T05:44:56.284Z,79
2022-10-10T05:46:52.830Z,82
2022-10-10T05:47:58.571Z,84
2022-10-10T05:49:02.734Z,79
2022-10-10T05:50:06.993Z,79
2022-10-10T05:51:15.965Z,79
2022-10-10T05:52:20.274Z,78
2022-10-10T05:53:24.382Z,79
2022-10-10T05:54:28.702Z,76
2022-10-10T05:55:32.935Z,77
2022-10-10T05:56:37.138Z,76
2022-10-10T05:57:41.598Z,75
2022-10-10T05:58:45.866Z,75
2022-10-10T05:59:50.156Z,75
2022-10-10T06:00:54.394Z,70
2022-10-10T06:03:02.242Z,70
2022-10-10T06:04:06.498Z,74
2022-10-10T06:05:12.051Z,77
2022-10-10T06:06:16.398Z,74
2022-10-10T06:07:20.869Z,81
2022-10-10T06:09:28.919Z,74
2022-10-10T06:10:33.183Z,74
2022-10-10T06:11:37.576Z,64
2022-10-10T06:12:42.056Z,72
2022-10-10T06:13:46.825Z,70
2022-10-10T06:14:51.054Z,69
2022-10-10T06:15:55.313Z,71
2022-10-10T06:16:59.733Z,75
2022-10-10T06:18:04.070Z,76
2022-10-10T06:19:12.622Z,72
2022-10-10T06:20:13.189Z,72
2022-10-10T06:21:18.189Z,72
2022-10-10T06:22:22.538Z,73
2022-10-10T06:23:26.881Z,72
2022-10-10T06:24:31.281Z,74
2022-10-10T06:25:40.334Z,77
2022-10-10T06:26:39.704Z,69
2022-10-10T06:27:43.872Z,65
2022-10-10T06:28:48.149Z,71
2022-10-10T06:29:52.552Z,67
2022-10-10T06:30:56.908Z,72
2022-10-10T06:32:01.244Z,63
2022-10-10T06:33:05.608Z,67
2022-10-10T06:34:10.088Z,71
2022-10-10T06:35:14.445Z,70
2022-10-10T06:36:19.013Z,68
2022-10-10T06:37:24.416Z,71
2022-10-10T06:38:29.308Z,63
2022-10-10T06:40:37.199Z,65
2022-10-10T06:41:41.523Z,60
2022-10-10T06:42:45.788Z,64
2022-10-10T06:43:50.156Z,60
2022-10-10T06:44:54.479Z,55
2022-10-10T06:45:58.756Z,47
2022-10-10T06:47:03.040Z,47
2022-10-10T06:48:07.432Z,42
2022-10-10T06:49:12.215Z,40
2022-10-10T06:50:17.177Z,47
2022-10-10T06:51:21.491Z,38
2022-10-10T06:52:25.850Z,48
2022-10-10T06:53:30.090Z,36
2022-10-10T06:54:34.509Z,33
2022-10-10T06:55:38.781Z,32
2022-10-10T06:56:43.013Z,31
2022-10-10T06:57:47.336Z,32
2022-10-10T06:58:51.761Z,27
2022-10-10T07:00:59.769Z,28
2022-10-10T07:02:04.185Z,25
2022-10-10T07:03:08.810Z,27
2022-10-10T07:04:13.193Z,33
2022-10-10T07:05:17.940Z,26
2022-10-10T07:06:22.774Z,27
2022-10-10T07:07:27.126Z,25
2022-10-10T07:08:31.573Z,29
2022-10-10T07:09:35.962Z,25
2022-10-10T07:10:41.041Z,25
2022-10-10T07:11:45.587Z,32
2022-10-10T07:12:49.806Z,25
2022-10-10T07:13:54.729Z,33
2022-10-10T07:14:59.142Z,27
2022-10-10T07:16:03.576Z,30
2022-10-10T07:17:08.058Z,27
2022-10-10T07:18:12.437Z,25
2022-10-10T07:19:16.745Z,25
2022-10-10T07:20:21.049Z,25
2022-10-10T07:21:25.796Z,36
2022-10-10T07:22:30.149Z,26
2022-10-10T07:23:34.713Z,25
2022-10-10T07:24:39.098Z,25
2022-10-10T07:25:43.424Z,25
2022-10-10T07:26:47.964Z,27
2022-10-10T07:27:52.501Z,27
2022-10-10T07:28:57.014Z,27
2022-10-10T07:30:01.217Z,25
2022-10-10T07:31:05.877Z,25
2022-10-10T07:32:10.344Z,33
2022-10-10T07:33:14.980Z,27
2022-10-10T07:34:19.417Z,27
2022-10-10T07:35:23.749Z,26
2022-10-10T07:36:28.460Z,31
2022-10-10T07:37:32.785Z,27
2022-10-10T07:38:37.169Z,27
2022-10-10T07:39:41.476Z,27
2022-10-10T07:40:45.788Z,30
2022-10-10T07:41:50.744Z,33
2022-10-10T07:42:55.124Z,25
2022-10-10T07:43:59.708Z,25
2022-10-10T07:45:04.152Z,31
2022-10-10T07:46:09.887Z,25
2022-10-10T07:47:18.339Z,29
2022-10-10T07:48:23.516Z,29
2022-10-10T07:49:28.345Z,28
2022-10-10T07:50:32.725Z,30
2022-10-10T07:51:37.384Z,25
2022-10-10T07:52:45.021Z,25
2022-10-10T07:53:49.220Z,30
2022-10-10T07:54:53.465Z,27
2022-10-10T07:55:58.120Z,30
2022-10-10T07:57:02.384Z,25
2022-10-10T07:58:06.644Z,26
2022-10-10T07:59:14.190Z,28
2022-10-10T08:00:18.480Z,30
2022-10-10T08:01:22.857Z,25
2022-10-10T08:02:27.115Z,25
2022-10-10T08:03:31.508Z,33
2022-10-10T08:04:35.882Z,25
2022-10-10T08:05:40.073Z,25
2022-10-10T08:06:44.448Z,25
2022-10-10T08:07:49.005Z,25
2022-10-10T08:08:52.870Z,25
2022-10-10T08:09:57.264Z,25
2022-10-10T08:11:01.661Z,25
2022-10-10T08:12:05.890Z,25
2022-10-10T08:13:10.130Z,25
2022-10-10T08:14:14.354Z,25
2022-10-10T08:15:18.992Z,25
2022-10-10T08:16:23.324Z,25
2022-10-10T08:17:27.873Z,25
2022-10-10T08:18:32.125Z,25
2022-10-10T08:19:36.733Z,25
2022-10-10T08:20:41.028Z,25
2022-10-10T08:21:45.796Z,25
2022-10-10T08:22:50.102Z,25
2022-10-10T08:23:54.159Z,25
2022-10-10T08:24:58.248Z,25
2022-10-10T08:26:02.545Z,25
2022-10-10T08:27:06.785Z,25
2022-10-10T08:28:11.211Z,25
2022-10-10T08:29:15.455Z,25
2022-10-10T08:30:19.708Z,25
2022-10-10T08:31:23.941Z,25
2022-10-10T08:32:28.675Z,25
2022-10-10T08:33:32.889Z,25
2022-10-10T08:34:37.143Z,25
2022-10-10T08:35:42.481Z,25
2022-10-10T08:36:47.004Z,25
2022-10-10T08:37:51.281Z,25
2022-10-10T08:38:55.544Z,25
2022-10-10T08:39:59.690Z,25
2022-10-10T08:41:03.944Z,25
2022-10-10T08:42:08.284Z,25
2022-10-10T08:43:15.129Z,25
2022-10-10T08:44:19.400Z,25
2022-10-10T08:45:23.747Z,25
2022-10-10T08:46:28.275Z,25
2022-10-10T08:47:37.576Z,25
2022-10-10T08:48:45.105Z,25
2022-10-10T08:49:49.555Z,25
2022-10-10T08:50:56.443Z,25
2022-10-10T08:52:00.708Z,25
2022-10-10T08:54:17.164Z,25
2022-10-10T08:56:30.236Z,25
2022-10-10T08:57:34.536Z,39
2022-10-10T08:58:44.056Z,34
2022-10-10T08:59:48.368Z,36
2022-10-10T09:00:52.570Z,32
2022-10-10T09:02:17.503Z,30
2022-10-10T09:03:19.036Z,29
2022-10-10T09:04:28.379Z,27
2022-10-10T09:05:32.543Z,25
2022-10-10T09:06:41.931Z,34
2022-10-10T09:07:54.064Z,34
2022-10-10T09:09:01.253Z,26
2022-10-10T09:10:13.831Z,26
2022-10-10T09:11:28.336Z,28
2022-10-10T09:12:38.131Z,26
2022-10-10T09:13:50.208Z,31
2022-10-10T09:15:02.318Z,31
2022-10-10T09:16:09.456Z,29
2022-10-10T09:17:18.969Z,25
2022-10-10T09:18:28.208Z,27
2022-10-10T09:19:42.592Z,37
2022-10-10T09:20:52.792Z,25
2022-10-10T09:22:02.546Z,30
2022-10-10T09:23:06.852Z,29
2022-10-10T09:24:16.393Z,26
2022-10-10T09:25:23.816Z,27
2022-10-10T09:26:36.335Z,28
2022-10-10T09:27:43.912Z,25
2022-10-10T09:28:48.524Z,29
2022-10-10T09:30:03.628Z,32
2022-10-10T09:31:18.627Z,25
2022-10-10T09:32:30.797Z,33
2022-10-10T09:33:35.184Z,29
2022-10-10T09:34:40.683Z,38
2022-10-10T09:35:50.320Z,33
2022-10-10T09:36:58.582Z,30
2022-10-10T09:37:59.640Z,37
2022-10-10T09:39:03.933Z,39
2022-10-10T09:40:13.611Z,26
2022-10-10T09:41:28.096Z,35
2022-10-10T09:42:32.416Z,39
2022-10-10T09:43:36.693Z,66
2022-10-10T09:44:40.923Z,25
2022-10-10T09:45:45.632Z,31
2022-10-10T09:46:49.889Z,29
2022-10-10T09:47:54.314Z,31
2022-10-10T09:49:02.820Z,29
2022-10-10T09:50:07.953Z,39
2022-10-10T09:51:16.376Z,37
2022-10-10T09:52:20.662Z,30
2022-10-10T09:53:27.675Z,33
2022-10-10T09:54:31.999Z,25
2022-10-10T09:55:36.248Z,36
2022-10-10T09:56:40.511Z,38
2022-10-10T09:57:52.492Z,29
2022-10-10T09:59:00.031Z,25
2022-10-10T10:00:04.782Z,25
2022-10-10T10:01:17.091Z,37
2022-10-10T10:02:33.812Z,34
2022-10-10T10:03:38.057Z,27
2022-10-10T10:04:42.520Z,25
2022-10-10T10:05:46.738Z,30
2022-10-10T10:06:57.286Z,31
2022-10-10T10:08:04.313Z,34
2022-10-10T10:09:08.545Z,47
2022-10-10T10:10:12.761Z,32
2022-10-10T10:13:14.215Z,29
2022-10-10T10:14:28.739Z,38
2022-10-10T10:15:33.127Z,25
2022-10-10T10:18:27.273Z,46
2022-10-10T10:19:32.804Z,43
2022-10-10T10:20:36.879Z,25
2022-10-10T10:21:40.977Z,33
2022-10-10T10:23:02.950Z,41
2022-10-10T10:26:23.413Z,49
2022-10-10T10:27:32.393Z,38
2022-10-10T10:28:36.643Z,32
2022-10-10T10:32:10.133Z,25
2022-10-10T10:33:24.462Z,36
2022-10-10T10:34:38.733Z,33
2022-10-10T10:35:53.022Z,46
2022-10-10T10:37:02.479Z,39
2022-10-10T10:38:21.078Z,25
2022-10-10T10:39:35.380Z,39
2022-10-10T10:41:00.672Z,25
2022-10-10T10:42:09.872Z,31
2022-10-10T10:43:19.452Z,35
2022-10-10T10:44:33.752Z,30
2022-10-10T10:45:42.894Z,25
2022-10-10T10:46:57.025Z,34
2022-10-10T10:48:03.756Z,28
2022-10-10T10:49:20.716Z,33
2022-10-10T10:50:43.919Z,36
2022-10-10T10:54:07.255Z,34
2022-10-10T10:55:16.829Z,33
2022-10-10T10:56:27.104Z,34
2022-10-10T10:57:45.721Z,31
2022-10-10T10:59:10.619Z,41
2022-10-10T11:00:21.340Z,28
2022-10-10T11:01:22.902Z,35
2022-10-10T11:02:51.035Z,37
2022-10-10T11:05:16.774Z,38
2022-10-10T11:05:17.043Z,43
2022-10-10T11:06:08.559Z,37
2022-10-10T11:07:21.379Z,28
2022-10-10T11:08:30.147Z,32
2022-10-10T11:09:54.989Z,33
2022-10-10T11:10:43.876Z,35
2022-10-10T11:13:42.518Z,38
2022-10-10T11:14:51.899Z,39
2022-10-10T11:16:06.336Z,35
2022-10-10T11:17:06.128Z,34
2022-10-10T11:18:20.433Z,28
2022-10-10T11:21:19.302Z,35
2022-10-10T11:22:38.461Z,30
2022-10-10T11:23:42.741Z,35
2022-10-10T11:24:50.171Z,35
2022-10-10T11:26:03.303Z,42
2022-10-10T11:27:07.723Z,45
2022-10-10T11:28:20.833Z,37
2022-10-10T11:29:26.001Z,39
2022-10-10T11:30:33.275Z,28
2022-10-10T11:31:37.580Z,41
2022-10-10T11:32:49.952Z,31
2022-10-10T11:33:57.398Z,37
2022-10-10T11:35:03.484Z,34
2022-10-10T11:36:17.813Z,36
2022-10-10T11:37:22.216Z,29
2022-10-10T11:38:26.476Z,33
2022-10-10T11:39:41.095Z,42
2022-10-10T11:40:45.199Z,38
2022-10-10T11:41:52.441Z,34
2022-10-10T11:43:00.039Z,39
2022-10-10T11:44:11.263Z,29
2022-10-10T11:45:23.476Z,38
2022-10-10T11:46:27.764Z,39
2022-10-10T11:47:37.495Z,34
2022-10-10T11:48:44.292Z,31
2022-10-10T11:50:00.536Z,25
2022-10-10T11:51:12.863Z,25
2022-10-10T11:52:33.453Z,28
2022-10-10T11:53:26.459Z,36
2022-10-10T11:54:35.779Z,43
2022-10-10T11:55:42.588Z,40
2022-10-10T11:56:53.111Z,42
2022-10-10T11:57:57.475Z,43
2022-10-10T11:59:02.195Z,39
2022-10-10T12:00:09.319Z,36
2022-10-10T12:01:13.919Z,35
2022-10-10T12:02:24.525Z,38
2022-10-10T12:05:50.256Z,41
2022-10-10T12:07:09.596Z,37
2022-10-10T12:08:18.902Z,27
2022-10-10T12:09:24.657Z,29
2022-10-10T12:10:31.687Z,34
2022-10-10T12:13:37.097Z,27
2022-10-10T12:14:42.059Z,25
2022-10-10T12:16:40.195Z,29
2022-10-10T12:17:44.423Z,25
2022-10-10T12:18:49.084Z,34
2022-10-10T12:19:53.255Z,41
2022-10-10T12:20:58.156Z,42
2022-10-10T12:22:08.208Z,46
2022-10-10T12:23:12.409Z,32
2022-10-10T12:24:24.435Z,29
2022-10-10T12:25:28.726Z,43
2022-10-10T12:26:35.984Z,37
2022-10-10T12:27:45.183Z,38
2022-10-10T12:28:59.558Z,31
2022-10-10T12:30:06.660Z,29
2022-10-10T12:31:10.932Z,31
2022-10-10T12:32:18.081Z,33
2022-10-10T12:33:22.287Z,33
2022-10-10T12:34:34.084Z,32
2022-10-10T12:35:44.299Z,33
2022-10-10T12:36:52.652Z,40
2022-10-10T12:38:00.567Z,41
2022-10-10T12:39:11.395Z,38
2022-10-10T12:40:15.636Z,42
2022-10-10T12:41:19.967Z,41
2022-10-10T12:42:28.079Z,33
2022-10-10T12:43:34.720Z,35
2022-10-10T12:44:44.480Z,30
2022-10-10T12:45:49.376Z,36
2022-10-10T12:47:07.304Z,37
2022-10-10T12:48:14.595Z,39
2022-10-10T12:49:18.748Z,34
2022-10-10T12:50:25.959Z,25
2022-10-10T12:51:32.603Z,32
2022-10-10T12:52:37.751Z,26
2022-10-10T12:53:47.532Z,30
2022-10-10T12:54:54.978Z,34
2022-10-10T12:56:05.803Z,33
2022-10-10T12:57:10.091Z,39
2022-10-10T12:58:26.436Z,33
2022-10-10T12:59:29.257Z,37
2022-10-10T13:01:04.220Z,31
2022-10-10T13:02:08.243Z,39
2022-10-10T13:03:17.478Z,40
2022-10-10T13:04:27.497Z,42
2022-10-10T13:05:31.788Z,36
2022-10-10T13:06:36.102Z,42
2022-10-10T13:07:43.183Z,35
2022-10-10T13:08:49.827Z,27
2022-10-10T13:09:53.992Z,36
2022-10-10T13:10:58.303Z,37
2022-10-10T13:12:05.852Z,32
2022-10-10T13:13:10.047Z,41
2022-10-10T13:14:15.563Z,46
2022-10-10T13:15:19.917Z,38
2022-10-10T13:16:24.203Z,38
2022-10-10T13:17:28.621Z,39
2022-10-10T13:18:37.991Z,46
2022-10-10T13:19:50.644Z,35
2022-10-10T13:20:54.875Z,34
2022-10-10T13:21:59.220Z,35
2022-10-10T13:23:03.456Z,35
2022-10-10T13:24:07.755Z,37
2022-10-10T13:25:12.126Z,48
2022-10-10T13:26:16.499Z,46
2022-10-10T13:27:23.534Z,41
2022-10-10T13:28:30.825Z,45
2022-10-10T13:29:34.931Z,42
2022-10-10T13:30:39.450Z,45
2022-10-10T13:31:43.591Z,46
2022-10-10T13:32:47.871Z,43
2022-10-10T13:33:55.247Z,49
2022-10-10T13:35:09.746Z,45
2022-10-10T13:36:14.008Z,36
2022-10-10T13:37:21.056Z,39
2022-10-10T13:38:28.538Z,40
2022-10-10T13:39:37.522Z,36
2022-10-10T13:40:41.926Z,43
2022-10-10T13:41:46.175Z,39
2022-10-10T13:42:50.459Z,35
2022-10-10T13:43:54.725Z,35
2022-10-10T13:44:58.915Z,42
2022-10-10T13:46:03.134Z,33
2022-10-10T13:47:07.629Z,43
2022-10-10T13:48:21.955Z,44
2022-10-10T13:49:28.087Z,33
2022-10-10T13:50:32.287Z,31
2022-10-10T13:51:41.532Z,43
2022-10-10T13:52:45.938Z,46
2022-10-10T13:53:50.183Z,36
2022-10-10T13:54:54.414Z,34
2022-10-10T13:55:58.567Z,30
2022-10-10T13:57:07.964Z,26
2022-10-10T13:58:19.715Z,32
2022-10-10T13:59:27.045Z,36
2022-10-10T14:00:31.231Z,39
2022-10-10T14:01:35.468Z,32
2022-10-10T14:02:46.313Z,42
2022-10-10T14:03:50.418Z,32
2022-10-10T14:04:57.771Z,38
2022-10-10T14:06:04.834Z,34
2022-10-10T14:07:10.392Z,43
2022-10-10T14:08:22.475Z,41
2022-10-10T14:09:29.520Z,32
2022-10-10T14:10:33.797Z,45
2022-10-10T14:11:37.982Z,40
2022-10-10T14:12:45.054Z,33
2022-10-10T14:13:52.085Z,33
2022-10-10T14:15:02.330Z,38
2022-10-10T14:16:06.843Z,40
2022-10-10T14:17:16.087Z,41
2022-10-10T14:18:20.339Z,35
2022-10-10T14:19:24.639Z,43
2022-10-10T14:20:28.972Z,52
2022-10-10T14:21:33.239Z,39
2022-10-10T14:22:37.462Z,41
2022-10-10T14:23:41.786Z,35
2022-10-10T14:24:46.142Z,44
2022-10-10T14:26:58.075Z,48
2022-10-10T14:28:04.979Z,51
2022-10-10T14:29:19.315Z,46
2022-10-10T14:30:23.919Z,44
2022-10-10T14:31:28.378Z,52
2022-10-10T14:32:32.596Z,45
2022-10-10T14:33:36.780Z,42
2022-10-10T14:34:40.862Z,40
2022-10-10T14:35:45.071Z,50
2022-10-10T14:36:49.367Z,44
2022-10-10T14:37:57.963Z,46
2022-10-10T14:39:02.239Z,41
2022-10-10T14:40:06.439Z,47
2022-10-10T14:41:15.790Z,48
2022-10-10T14:42:19.958Z,52
2022-10-10T14:43:24.302Z,39
2022-10-10T14:44:29.039Z,43
2022-10-10T14:45:33.376Z,47
2022-10-10T14:46:39.183Z,44
2022-10-10T14:47:43.354Z,41
2022-10-10T14:48:47.915Z,42
2022-10-10T14:49:52.080Z,36
2022-10-10T14:50:56.347Z,40
2022-10-10T14:52:00.930Z,67
2022-10-10T14:53:05.363Z,47
2022-10-10T14:54:09.639Z,51
2022-10-10T14:56:17.837Z,54
2022-10-10T14:57:21.984Z,33
2022-10-10T14:58:26.435Z,57
2022-10-10T14:59:45.783Z,47
2022-10-10T15:00:34.999Z,63
2022-10-10T15:01:39.820Z,47
2022-10-10T15:02:45.708Z,64
2022-10-10T15:03:48.175Z,48
2022-10-10T15:04:52.487Z,52
2022-10-10T15:05:56.819Z,44
2022-10-10T15:08:04.746Z,44
2022-10-10T15:09:27.783Z,40
2022-10-10T15:11:17.697Z,57
2022-10-10T15:12:22.050Z,60
2022-10-10T15:13:26.621Z,61
2022-10-10T15:14:33.517Z,68
2022-10-10T15:15:37.989Z,70
2022-10-10T15:16:42.246Z,64
2022-10-10T15:17:46.530Z,75
2022-10-10T15:18:54.689Z,73
2022-10-10T15:19:55.303Z,66
2022-10-10T15:20:59.839Z,71
2022-10-10T15:22:03.713Z,63
2022-10-10T15:23:08.095Z,72
2022-10-10T15:24:12.250Z,78
2022-10-10T15:25:16.581Z,82
2022-10-10T15:27:24.402Z,96
2022-10-10T15:28:31.562Z,81
2022-10-10T15:29:35.821Z,103
2022-10-10T15:30:42.995Z,111
2022-10-10T15:31:47.450Z,120
2022-10-10T15:32:51.534Z,117
2022-10-10T15:33:55.665Z,120
2022-10-10T15:34:59.901Z,121
2022-10-10T15:36:09.330Z,130
2022-10-10T15:37:09.002Z,131
2022-10-10T15:38:13.338Z,135
2022-10-10T15:39:17.702Z,121
2022-10-10T15:40:22.249Z,125
2022-10-10T15:41:26.579Z,125
2022-10-10T15:42:30.773Z,125
2022-10-10T15:43:35.083Z,117
2022-10-10T15:44:42.018Z,118
2022-10-10T15:46:01.869Z,114
2022-10-10T15:46:50.741Z,117
2022-10-10T15:47:55.010Z,117
2022-10-10T15:48:59.203Z,129
2022-10-10T15:50:03.472Z,126
2022-10-10T15:51:07.986Z,135
2022-10-10T15:52:12.169Z,133
2022-10-10T15:53:16.531Z,133
2022-10-10T15:54:20.751Z,136
2022-10-10T15:55:25.038Z,134
2022-10-10T15:56:29.522Z,133
2022-10-10T15:57:33.706Z,129
2022-10-10T15:58:37.933Z,128
2022-10-10T15:59:43.474Z,128
2022-10-10T16:00:48.247Z,128
2022-10-10T16:01:54.153Z,133
2022-10-10T16:02:58.433Z,136
2022-10-10T16:04:02.717Z,131
2022-10-10T16:05:07.157Z,136
2022-10-10T16:06:11.558Z,133
2022-10-10T16:07:33.101Z,126
2022-10-10T16:08:20.170Z,138
2022-10-10T16:09:29.399Z,132
2022-10-10T16:10:28.558Z,136
2022-10-10T16:11:32.854Z,138
2022-10-10T16:12:37.093Z,142
2022-10-10T16:13:41.760Z,143
2022-10-10T16:14:51.916Z,139
2022-10-10T16:15:56.193Z,146
2022-10-10T16:17:00.439Z,137
2022-10-10T16:18:04.754Z,136
2022-10-10T16:19:08.949Z,137